Missoula, MT (59801)

3:50 PM MDT on April 26, 2017 (GMT -0600)
Franklin to the Fort | | Change Station

Elev 3200 ft 46.86 °N, 114.02 °W | Updated 6 seconds ago

Overcast
Overcast
53.0 °F
Feels Like 53.0 °F
N
2.0
Wind Variable Wind from NW
Gusts 9.0 mph

Today
High -- | Low -- °F
--% Chance of Precip.
Yesterday
High -- | Low -- °F
Precip. -- in
Pressure 29.71 in
Visibility 10.0 miles
Clouds Mostly Cloudy 5000 ft
Mostly Cloudy 10000 ft
Dew Point 37 °F
Humidity 56%
Rainfall 0.05 in
Snow Depth Not available.
6:28 AM 8:40 PM
New Moon, 0% visible
METAR KMSO 262053Z 02005KT 10SM BKN050 BKN100 10/03 A2969 RMK AO2 SLP059 60002 T01000033 58008
Pressure 29.71 in
Visibility 10.0 miles
Clouds Mostly Cloudy 5000 ft
Mostly Cloudy 10000 ft
Dew Point 37 °F
Humidity 56%
Rainfall 0.05 in
Snow Depth Not available.
6:28 AM 8:40 PM
New Moon, 0% visible
METAR KMSO 262053Z 02005KT 10SM BKN050 BKN100 10/03 A2969 RMK AO2 SLP059 60002 T01000033 58008

Get Severe Weather Alerts

Thanks for signing up!

Be on the lookout for a verification email in your inbox.

You'll start receiving the daily forecast at 8 AM.

×

10-Day Weather Forecast

Almanac

Astronomy

Apr. 26, 2017 Rise Set
Actual Time
Civil Twilight
Nautical Twilight
Astronomical Twilight
Moon
Length of Visible Light
Length of Day
Tomorrow will be .
, % of the Moon is Illuminated

Today's Extremes

State Highs State Lows

Community

WunderPhotos

WunderBlog® & News

Nearby

Air Quality

  Air Quality AQ Index Pollutant
Not available.

Snow Depth

Station Depth Elevation

Earthquake Activity

City Distance Mag. Time & Date
Minimum magnitude displayed is 2.5.

Coastal Water Temperatures

Place Temperature

Stations

Nearby Weather Stations

Station Location Temp. Windchill Dew Point Humidity Wind Precip. Elev Updated Type
                   

Watches & Warnings

There are currently no watches in effect.